Time;durP1;ratioP1;P1;durP2;ratioP2;P2;SDS_P1;SDS_P2;PMS_P1;PMS_P2;Temp;Humidity;BMP_temperature;BMP_pressure;BME280_temperature;BME280_humidity;BME280_pressure;Samples;Min_cycle;Max_cycle;Signal;HPM_P1;HPM_P2
2023/04/01 00:00:48;;;;;;;2.00;0.90;;;8.10;99.90;;;;;;4991467;28;20497;-71
2023/04/01 00:03:14;;;;;;;1.63;1.10;;;8.10;99.90;;;;;;4989658;28;20935;-72
2023/04/01 00:05:39;;;;;;;1.33;0.70;;;8.10;99.90;;;;;;4990101;28;20167;-71
2023/04/01 00:08:05;;;;;;;2.30;0.90;;;8.10;99.90;;;;;;4991227;28;20178;-72
2023/04/01 00:10:30;;;;;;;1.27;1.00;;;8.10;99.90;;;;;;4989110;28;20648;-72
2023/04/01 00:12:56;;;;;;;1.57;1.00;;;8.10;99.90;;;;;;4991218;28;20191;-71
2023/04/01 00:15:22;;;;;;;4.23;1.03;;;8.10;99.90;;;;;;4992151;28;20724;-72
2023/04/01 00:17:48;;;;;;;2.97;1.90;;;8.10;99.90;;;;;;4990718;28;20597;-72
2023/04/01 00:20:14;;;;;;;1.33;0.80;;;8.10;99.90;;;;;;4989585;28;20207;-71
2023/04/01 00:22:40;;;;;;;2.53;1.10;;;8.10;99.90;;;;;;4991686;28;20488;-72
2023/04/01 00:25:06;;;;;;;3.27;1.00;;;8.10;99.90;;;;;;4992300;28;20423;-72
2023/04/01 00:27:32;;;;;;;3.10;1.33;;;8.10;99.90;;;;;;4992500;28;20426;-72
2023/04/01 00:29:58;;;;;;;2.27;1.00;;;8.10;99.90;;;;;;4995705;28;20451;-72
2023/04/01 00:32:23;;;;;;;4.80;1.30;;;8.10;99.90;;;;;;4995916;28;20949;-71
2023/04/01 00:34:52;;;;;;;3.90;2.07;;;8.10;99.90;;;;;;4996173;28;20221;-72
2023/04/01 00:37:19;;;;;;;2.70;1.20;;;8.10;99.90;;;;;;4996212;28;20254;-72
2023/04/01 00:39:45;;;;;;;3.53;1.10;;;8.10;99.90;;;;;;4985098;28;20957;-72
2023/04/01 00:42:12;;;;;;;1.90;1.20;;;8.20;99.90;;;;;;4996187;28;20488;-72
2023/04/01 00:44:38;;;;;;;2.30;1.10;;;8.20;99.90;;;;;;4995949;28;20462;-73
2023/04/01 00:47:04;;;;;;;12.70;1.80;;;8.20;99.90;;;;;;4995921;28;20422;-72
2023/04/01 00:49:39;;;;;;;1.43;1.27;;;8.10;99.90;;;;;;4995280;28;20533;-72
2023/04/01 00:52:08;;;;;;;1.40;1.17;;;8.10;99.90;;;;;;4995124;28;20449;-72
2023/04/01 00:54:35;;;;;;;1.90;0.80;;;8.10;99.90;;;;;;4993329;28;20469;-72
2023/04/01 00:57:06;;;;;;;4.47;1.10;;;8.10;99.90;;;;;;4994239;28;20505;-71
2023/04/01 00:59:36;;;;;;;2.47;1.10;;;8.00;99.90;;;;;;4993686;28;20827;-72
2023/04/01 01:02:05;;;;;;;3.10;2.07;;;8.10;99.90;;;;;;4993899;28;20438;-72
2023/04/01 01:04:33;;;;;;;3.20;1.80;;;8.10;99.90;;;;;;4993662;28;20439;-73
2023/04/01 01:07:13;;;;;;;3.07;0.90;;;8.00;99.90;;;;;;4991587;28;20440;-73
2023/04/01 01:10:13;;;;;;;0.97;0.90;;;8.00;99.90;;;;;;4989262;28;20528;-73
2023/04/01 01:12:52;;;;;;;4.40;1.47;;;8.00;99.90;;;;;;4992935;28;20488;-72
2023/04/01 01:15:24;;;;;;;1.20;1.00;;;7.90;99.90;;;;;;4991766;28;20434;-73
2023/04/01 01:18:02;;;;;;;1.67;0.93;;;7.90;99.90;;;;;;4988364;28;20447;-73
2023/04/01 01:21:17;;;;;;;4.17;1.33;;;7.90;99.90;;;;;;4993044;28;20475;-73
2023/04/01 01:24:03;;;;;;;3.40;1.30;;;7.90;99.90;;;;;;4979680;28;20490;-73
2023/04/01 01:26:50;;;;;;;1.80;0.93;;;7.90;99.90;;;;;;4993455;28;20529;-72
2023/04/01 01:29:53;;;;;;;1.70;1.07;;;7.90;99.90;;;;;;4991037;28;20972;-73
2023/04/01 01:32:46;;;;;;;3.07;1.07;;;7.90;99.90;;;;;;4987905;28;20430;-73
2023/04/01 01:35:26;;;;;;;2.77;1.20;;;7.90;99.90;;;;;;4989210;28;20438;-73
2023/04/01 01:37:56;;;;;;;1.13;0.90;;;7.90;99.90;;;;;;4992920;28;20454;-73
2023/04/01 01:40:24;;;;;;;1.10;0.80;;;7.90;99.90;;;;;;4991563;28;20849;-73
2023/04/01 01:42:54;;;;;;;4.07;1.20;;;7.90;99.90;;;;;;4990652;28;20829;-73
2023/04/01 01:45:23;;;;;;;3.47;1.00;;;7.90;99.90;;;;;;4989202;28;20434;-73
2023/04/01 01:47:50;;;;;;;1.20;0.80;;;7.90;99.90;;;;;;4991725;28;20435;-73
2023/04/01 01:50:17;;;;;;;7.03;1.23;;;7.90;99.90;;;;;;4992028;28;20462;-73
2023/04/01 01:52:43;;;;;;;3.00;1.40;;;7.90;99.90;;;;;;4993822;28;20545;-73
2023/04/01 01:55:35;;;;;;;2.63;1.20;;;7.90;99.90;;;;;;4993073;28;21030;-73
2023/04/01 01:58:27;;;;;;;1.90;0.67;;;7.90;99.90;;;;;;4992930;28;20186;-73
2023/04/01 02:01:01;;;;;;;1.47;1.03;;;7.80;99.90;;;;;;4992344;28;20478;-73
2023/04/01 02:03:31;;;;;;;3.93;0.87;;;7.80;99.90;;;;;;4992858;28;20932;-73
2023/04/01 02:06:00;;;;;;;1.70;0.73;;;7.80;99.90;;;;;;4992261;28;20496;-73
2023/04/01 02:08:55;;;;;;;2.20;1.10;;;7.80;99.90;;;;;;4991088;28;20531;-73
2023/04/01 02:11:32;;;;;;;2.20;0.80;;;7.80;99.90;;;;;;4982294;28;20485;-73
2023/04/01 02:14:19;;;;;;;7.30;1.13;;;7.80;99.90;;;;;;4990804;28;20545;-73
2023/04/01 02:16:53;;;;;;;2.10;0.90;;;7.80;99.90;;;;;;4992802;28;20815;-73
2023/04/01 02:19:23;;;;;;;3.60;0.80;;;7.80;99.90;;;;;;4992591;28;20466;-73
2023/04/01 02:21:56;;;;;;;4.07;0.77;;;7.80;99.90;;;;;;4992927;28;20868;-73
2023/04/01 02:24:24;;;;;;;1.77;0.80;;;7.80;99.90;;;;;;4991587;28;20456;-73
2023/04/01 02:26:51;;;;;;;1.90;0.70;;;7.70;99.90;;;;;;4993344;28;20450;-73
2023/04/01 02:29:21;;;;;;;2.10;0.70;;;7.70;99.90;;;;;;4990666;28;20466;-73
2023/04/01 02:31:49;;;;;;;1.00;0.70;;;7.70;99.90;;;;;;4990972;28;20932;-73
2023/04/01 02:34:14;;;;;;;2.20;0.70;;;7.70;99.90;;;;;;4993370;28;20467;-73
2023/04/01 02:36:40;;;;;;;1.13;0.57;;;7.70;99.90;;;;;;4992713;28;20470;-73
2023/04/01 02:39:07;;;;;;;2.40;0.70;;;7.70;99.90;;;;;;4992463;28;20190;-73
2023/04/01 02:41:39;;;;;;;0.73;0.60;;;7.70;99.90;;;;;;4987180;28;20204;-73
2023/04/01 02:44:05;;;;;;;1.47;0.63;;;7.60;99.90;;;;;;4991971;28;20427;-73
2023/04/01 02:46:31;;;;;;;3.17;0.60;;;7.60;99.90;;;;;;4991472;28;20430;-73
2023/04/01 02:48:57;;;;;;;0.80;0.60;;;7.60;99.90;;;;;;4991147;28;20437;-73
2023/04/01 02:51:22;;;;;;;1.73;0.70;;;7.60;99.90;;;;;;4990005;28;20191;-73
2023/04/01 02:53:48;;;;;;;1.00;0.50;;;7.60;99.90;;;;;;4993023;28;20661;-73
2023/04/01 02:56:13;;;;;;;1.37;0.50;;;7.50;99.90;;;;;;4992949;28;20569;-72
2023/04/01 02:58:39;;;;;;;3.80;0.70;;;7.60;99.90;;;;;;4991718;28;20184;-73
2023/04/01 03:01:04;;;;;;;0.70;0.53;;;7.60;99.90;;;;;;4991301;28;20609;-72
2023/04/01 03:03:30;;;;;;;0.50;0.50;;;7.60;99.90;;;;;;4992528;28;20184;-72
2023/04/01 03:05:58;;;;;;;1.90;0.43;;;7.60;99.90;;;;;;4992891;28;20184;-73
2023/04/01 03:08:24;;;;;;;1.10;0.60;;;7.50;99.90;;;;;;4991041;28;20819;-73
2023/04/01 03:10:49;;;;;;;0.93;0.60;;;7.50;99.90;;;;;;4991616;28;20502;-72
2023/04/01 03:13:15;;;;;;;1.13;0.70;;;7.50;99.90;;;;;;4989927;28;20197;-72
2023/04/01 03:15:40;;;;;;;2.53;0.67;;;7.50;99.90;;;;;;4990502;28;20198;-72
2023/04/01 03:18:06;;;;;;;0.70;0.60;;;7.50;99.90;;;;;;4991344;28;20188;-72
2023/04/01 03:20:31;;;;;;;2.10;0.80;;;7.50;99.90;;;;;;4991294;28;20211;-73
2023/04/01 03:22:57;;;;;;;1.27;0.70;;;7.50;99.90;;;;;;4992419;28;20593;-72
2023/04/01 03:25:23;;;;;;;0.73;0.70;;;7.50;99.90;;;;;;4989457;28;20668;-72
2023/04/01 03:27:48;;;;;;;3.80;1.70;;;7.40;99.90;;;;;;4992661;28;20496;-72
2023/04/01 03:30:14;;;;;;;0.60;0.50;;;7.40;99.90;;;;;;4990873;28;20676;-72
2023/04/01 03:32:39;;;;;;;1.10;0.53;;;7.40;99.90;;;;;;4990516;28;20645;-72
2023/04/01 03:35:05;;;;;;;2.40;0.60;;;7.40;99.90;;;;;;4991385;28;20175;-72
2023/04/01 03:37:31;;;;;;;1.67;0.50;;;7.40;99.90;;;;;;4991901;28;20198;-72
2023/04/01 03:39:57;;;;;;;2.20;0.90;;;7.50;99.90;;;;;;4991553;28;20601;-72
2023/04/01 03:42:22;;;;;;;1.20;0.50;;;7.50;99.90;;;;;;4992083;28;20474;-72
2023/04/01 03:44:48;;;;;;;1.73;0.60;;;7.60;99.90;;;;;;4991777;28;20197;-71
2023/04/01 03:47:13;;;;;;;2.90;0.60;;;7.60;99.90;;;;;;4991965;28;20587;-72
2023/04/01 03:49:39;;;;;;;0.60;0.60;;;7.60;99.90;;;;;;4990531;28;20282;-72
2023/04/01 03:52:09;;;;;;;0.70;0.60;;;7.50;99.90;;;;;;4989997;28;20190;-72
2023/04/01 03:54:34;;;;;;;1.83;0.83;;;7.50;99.90;;;;;;4990321;28;20194;-72
2023/04/01 03:57:00;;;;;;;1.63;0.70;;;7.50;99.90;;;;;;4991849;28;20855;-72
2023/04/01 03:59:25;;;;;;;1.10;0.70;;;7.50;99.90;;;;;;4990554;28;20274;-72
2023/04/01 04:01:51;;;;;;;1.20;0.50;;;7.40;99.90;;;;;;4991951;28;20175;-72
2023/04/01 04:04:17;;;;;;;1.70;0.60;;;7.40;99.90;;;;;;4998128;28;20172;-72
2023/04/01 04:06:43;;;;;;;1.80;0.60;;;7.40;99.90;;;;;;4997585;28;20179;-72
2023/04/01 04:09:08;;;;;;;0.90;0.67;;;7.30;99.90;;;;;;4997261;28;20434;-71
2023/04/01 04:11:34;;;;;;;4.20;0.60;;;7.30;99.90;;;;;;4996030;28;20187;-72
2023/04/01 04:13:59;;;;;;;0.60;0.57;;;7.30;99.90;;;;;;4995454;28;20187;-72
2023/04/01 04:16:25;;;;;;;0.60;0.53;;;7.20;99.90;;;;;;4997605;28;20187;-72
2023/04/01 04:18:51;;;;;;;1.23;0.70;;;7.20;99.90;;;;;;4997916;28;20187;-72
2023/04/01 04:21:16;;;;;;;0.50;0.50;;;7.30;99.90;;;;;;4998588;28;20676;-72
2023/04/01 04:23:42;;;;;;;0.60;0.60;;;7.30;99.90;;;;;;4995618;28;20207;-72
2023/04/01 04:26:11;;;;;;;2.40;0.60;;;7.30;99.90;;;;;;4989904;28;20271;-72
2023/04/01 04:28:37;;;;;;;0.63;0.60;;;7.30;99.90;;;;;;4997689;28;20184;-72
2023/04/01 04:31:05;;;;;;;2.03;0.83;;;7.20;99.90;;;;;;4998226;28;20457;-72
2023/04/01 04:33:30;;;;;;;0.60;0.50;;;7.20;99.90;;;;;;4996832;28;20653;-72
2023/04/01 04:35:57;;;;;;;1.10;0.70;;;7.20;99.90;;;;;;4995900;28;20442;-72
2023/04/01 04:38:24;;;;;;;1.00;0.50;;;7.20;99.90;;;;;;4994354;28;20187;-72
2023/04/01 04:40:49;;;;;;;0.87;0.60;;;7.10;99.90;;;;;;4996789;28;20951;-72
2023/04/01 04:43:16;;;;;;;0.50;0.50;;;7.10;99.90;;;;;;4997655;28;20469;-72
2023/04/01 04:45:42;;;;;;;0.50;0.47;;;7.10;99.90;;;;;;4998209;28;20210;-72
2023/04/01 04:48:10;;;;;;;0.60;0.50;;;7.10;99.90;;;;;;4997402;28;20899;-72
2023/04/01 04:50:35;;;;;;;2.10;0.80;;;7.10;99.90;;;;;;4997804;28;20993;-72
2023/04/01 04:53:02;;;;;;;0.57;0.57;;;7.10;99.90;;;;;;4996796;28;20441;-72
2023/04/01 04:55:27;;;;;;;1.50;0.50;;;7.10;99.90;;;;;;4994912;28;20183;-72
2023/04/01 04:57:53;;;;;;;1.37;0.60;;;7.10;99.90;;;;;;4996644;28;20464;-73
2023/04/01 05:00:18;;;;;;;1.57;0.83;;;7.00;99.90;;;;;;4996726;28;20693;-72
2023/04/01 05:02:44;;;;;;;2.00;0.80;;;7.10;99.90;;;;;;4997973;28;20197;-72
2023/04/01 05:05:10;;;;;;;1.13;0.70;;;7.10;99.90;;;;;;4996261;28;20210;-73
2023/04/01 05:07:36;;;;;;;0.83;0.83;;;7.10;99.90;;;;;;4996967;28;20171;-71
2023/04/01 05:10:01;;;;;;;1.70;0.60;;;7.10;99.90;;;;;;4997145;28;20485;-72
2023/04/01 05:12:27;;;;;;;1.40;0.60;;;7.20;99.90;;;;;;4995937;28;20175;-72
2023/04/01 05:14:52;;;;;;;2.77;1.00;;;7.20;99.90;;;;;;4992861;28;20192;-72
2023/04/01 05:17:18;;;;;;;3.17;0.70;;;7.30;99.90;;;;;;4991279;28;20199;-72
2023/04/01 05:19:43;;;;;;;2.33;0.70;;;7.30;99.90;;;;;;4993975;28;20669;-72
2023/04/01 05:22:09;;;;;;;5.10;1.17;;;7.40;99.90;;;;;;4994302;28;20553;-72
2023/04/01 05:24:35;;;;;;;2.30;0.97;;;7.40;99.90;;;;;;4994677;28;20203;-72
2023/04/01 05:27:00;;;;;;;3.83;0.80;;;7.50;99.90;;;;;;4993590;28;20179;-74
2023/04/01 05:29:26;;;;;;;2.20;0.87;;;7.50;99.90;;;;;;4992991;28;20264;-72
2023/04/01 05:31:52;;;;;;;4.30;1.47;;;7.60;99.90;;;;;;4994444;28;20198;-74
2023/04/01 05:34:18;;;;;;;4.10;1.30;;;7.60;99.90;;;;;;4993094;28;20438;-71
2023/04/01 05:36:44;;;;;;;2.33;1.00;;;7.70;99.90;;;;;;4992758;28;20179;-71
2023/04/01 05:39:09;;;;;;;1.30;0.80;;;7.80;99.90;;;;;;4993234;28;20184;-71
2023/04/01 05:41:36;;;;;;;1.13;0.70;;;7.90;99.90;;;;;;4993646;28;20471;-73
2023/04/01 05:44:02;;;;;;;3.17;0.87;;;7.90;99.90;;;;;;4992889;28;20684;-70
2023/04/01 05:46:28;;;;;;;1.33;0.90;;;7.90;99.90;;;;;;4991968;28;20446;-74
2023/04/01 05:48:53;;;;;;;3.27;1.07;;;7.90;99.90;;;;;;4991182;28;20439;-74
2023/04/01 05:51:19;;;;;;;1.10;0.80;;;7.90;99.90;;;;;;4993950;28;20438;-73
2023/04/01 05:53:44;;;;;;;3.40;0.77;;;8.00;99.90;;;;;;4994219;28;20246;-72
2023/04/01 05:56:10;;;;;;;4.83;1.57;;;8.00;99.90;;;;;;4988720;28;20238;-74
2023/04/01 05:58:36;;;;;;;2.80;0.70;;;8.10;99.90;;;;;;4990374;28;20230;-73
2023/04/01 06:01:05;;;;;;;0.87;0.87;;;8.20;99.90;;;;;;4991999;28;20306;-73
2023/04/01 06:03:30;;;;;;;3.10;0.77;;;8.30;99.90;;;;;;4993935;28;20966;-74
2023/04/01 06:05:56;;;;;;;3.60;1.00;;;8.40;99.90;;;;;;4993843;28;20435;-73
2023/04/01 06:08:21;;;;;;;1.83;0.80;;;8.50;99.90;;;;;;4991960;28;20179;-74
2023/04/01 06:10:55;;;;;;;4.00;1.37;;;8.60;99.90;;;;;;4993096;28;20219;-76
2023/04/01 06:13:41;;;;;;;2.90;0.80;;;8.70;99.90;;;;;;4987333;28;20210;-74
2023/04/01 06:16:21;;;;;;;2.73;1.20;;;8.80;99.90;;;;;;4990654;28;20469;-74
2023/04/01 06:18:47;;;;;;;1.33;0.60;;;9.00;99.90;;;;;;4988291;28;20439;-74
2023/04/01 06:21:29;;;;;;;1.93;0.80;;;9.10;99.90;;;;;;4993535;28;21031;-75
2023/04/01 06:24:01;;;;;;;1.50;0.60;;;9.20;99.90;;;;;;4993763;28;20540;-74
2023/04/01 06:26:55;;;;;;;5.33;0.93;;;9.20;99.90;;;;;;4992360;28;20434;-74
2023/04/01 06:29:38;;;;;;;2.10;1.00;;;9.20;99.90;;;;;;4986611;28;20998;-74
2023/04/01 06:32:33;;;;;;;3.10;0.90;;;9.10;99.90;;;;;;4993453;28;20427;-74
2023/04/01 06:35:10;;;;;;;0.80;0.63;;;9.10;99.90;;;;;;4991653;28;20435;-74
2023/04/01 06:38:03;;;;;;;1.60;0.90;;;9.10;99.90;;;;;;4993089;28;20427;-72
2023/04/01 06:41:03;;;;;;;0.80;0.70;;;9.20;99.90;;;;;;4989745;28;20524;-74
2023/04/01 06:43:55;;;;;;;1.37;0.50;;;9.10;99.90;;;;;;4993339;28;20925;-74
2023/04/01 06:46:47;;;;;;;0.90;0.67;;;9.10;99.90;;;;;;4983134;28;20431;-74
2023/04/01 06:49:35;;;;;;;3.90;2.40;;;9.00;99.90;;;;;;4990924;28;20577;-72
2023/04/01 06:52:19;;;;;;;1.63;0.73;;;8.90;99.90;;;;;;4992519;28;20434;-75
2023/04/01 06:54:49;;;;;;;1.20;0.70;;;8.90;99.90;;;;;;4992065;28;20450;-76
2023/04/01 06:57:21;;;;;;;2.20;0.87;;;8.90;99.90;;;;;;4982907;28;20470;-75
2023/04/01 06:59:47;;;;;;;4.97;0.70;;;8.90;99.90;;;;;;4989688;28;20458;-75
2023/04/01 07:02:27;;;;;;;3.33;1.73;;;8.90;99.90;;;;;;4992748;28;20437;-75
2023/04/01 07:04:54;;;;;;;2.20;0.60;;;9.00;99.90;;;;;;4992946;28;20442;-75
2023/04/01 07:07:31;;;;;;;4.03;1.40;;;9.00;99.90;;;;;;4992118;28;20435;-75
2023/04/01 07:10:01;;;;;;;4.30;1.47;;;9.20;99.90;;;;;;4990469;28;20478;-75
2023/04/01 07:12:33;;;;;;;2.60;0.93;;;9.20;99.90;;;;;;4992987;28;20492;-75
2023/04/01 07:15:06;;;;;;;0.90;0.73;;;9.30;99.90;;;;;;4992707;28;20522;-74
2023/04/01 07:17:35;;;;;;;1.30;0.90;;;9.30;99.90;;;;;;4990896;28;20470;-75
2023/04/01 07:20:26;;;;;;;6.93;2.70;;;9.20;99.90;;;;;;4990629;28;20474;-75
2023/04/01 07:22:56;;;;;;;1.77;0.80;;;9.20;99.90;;;;;;4990348;28;20435;-75
2023/04/01 07:25:47;;;;;;;1.53;1.00;;;9.10;99.90;;;;;;4992348;28;20427;-75
2023/04/01 07:28:18;;;;;;;3.60;1.50;;;9.10;99.90;;;;;;4990120;28;20805;-75
2023/04/01 07:31:02;;;;;;;0.73;0.70;;;9.10;99.90;;;;;;4988733;28;20513;-75
2023/04/01 07:33:46;;;;;;;1.43;0.80;;;9.00;99.90;;;;;;4992449;28;20881;-75
2023/04/01 07:36:30;;;;;;;5.10;1.03;;;9.00;99.90;;;;;;4988645;28;20430;-74
2023/04/01 07:39:00;;;;;;;2.10;0.83;;;9.10;99.90;;;;;;4989272;28;20518;-74
2023/04/01 07:41:42;;;;;;;2.30;0.80;;;9.10;99.90;;;;;;4992039;28;20596;-75
2023/04/01 07:44:27;;;;;;;2.63;0.70;;;9.10;99.90;;;;;;4991660;28;20791;-75
2023/04/01 07:47:22;;;;;;;0.77;0.60;;;9.20;99.90;;;;;;4978695;28;20438;-75
2023/04/01 07:50:13;;;;;;;1.83;0.97;;;9.20;99.90;;;;;;4990450;28;20968;-75
2023/04/01 07:52:51;;;;;;;2.40;1.17;;;9.30;99.90;;;;;;4990370;28;20435;-75
2023/04/01 07:55:47;;;;;;;3.17;1.03;;;9.30;99.90;;;;;;5007261;28;20422;-73
2023/04/01 07:58:25;;;;;;;1.30;0.80;;;9.40;99.90;;;;;;4987605;28;20435;-73
2023/04/01 08:01:10;;;;;;;2.50;1.00;;;9.40;99.90;;;;;;4991041;28;20473;-73
2023/04/01 08:04:07;;;;;;;0.90;0.70;;;9.50;99.90;;;;;;4989375;28;20430;-74
2023/04/01 08:06:41;;;;;;;0.80;0.80;;;9.60;99.90;;;;;;4987228;28;20805;-69
2023/04/01 08:09:25;;;;;;;2.97;1.00;;;9.50;99.90;;;;;;4988383;28;20430;-73
2023/04/01 08:12:03;;;;;;;1.43;0.90;;;9.60;99.90;;;;;;4991064;28;20450;-74
2023/04/01 08:14:51;;;;;;;2.50;1.00;;;9.60;99.90;;;;;;4992065;28;20434;-73
2023/04/01 08:17:26;;;;;;;1.20;0.90;;;9.60;99.90;;;;;;4982748;28;20452;-73
2023/04/01 08:20:01;;;;;;;3.80;1.23;;;9.70;99.90;;;;;;4988320;28;20473;-73
2023/04/01 08:22:43;;;;;;;2.00;0.77;;;9.60;99.90;;;;;;4989182;28;20496;-71
2023/04/01 08:25:17;;;;;;;1.50;0.63;;;9.60;99.90;;;;;;4988452;28;20438;-71
2023/04/01 08:27:53;;;;;;;1.50;1.00;;;9.60;99.90;;;;;;4991121;28;20438;-72
2023/04/01 08:30:25;;;;;;;0.90;0.60;;;9.60;99.90;;;;;;4984409;28;20508;-69
2023/04/01 08:32:58;;;;;;;1.97;0.70;;;9.60;99.90;;;;;;4989452;28;21725;-70
2023/04/01 08:35:41;;;;;;;3.13;0.73;;;9.50;99.90;;;;;;4987876;28;20521;-72
2023/04/01 08:38:17;;;;;;;1.53;0.90;;;9.40;99.90;;;;;;4988323;28;20522;-73
2023/04/01 08:40:58;;;;;;;1.27;0.70;;;9.30;99.90;;;;;;4989525;28;20466;-73
2023/04/01 08:43:31;;;;;;;1.10;1.00;;;9.10;99.90;;;;;;4985919;28;20500;-69
2023/04/01 08:46:03;;;;;;;1.37;0.60;;;9.00;99.90;;;;;;4990485;28;20434;-72
2023/04/01 08:49:07;;;;;;;2.70;0.70;;;8.90;99.90;;;;;;4988794;28;20430;-72
2023/04/01 08:52:10;;;;;;;1.37;0.90;;;8.70;99.90;;;;;;4956102;28;20538;-73
2023/04/01 08:55:02;;;;;;;0.60;0.60;;;8.60;99.90;;;;;;4994222;28;21018;-73
2023/04/01 08:58:06;;;;;;;1.07;0.70;;;8.40;99.90;;;;;;4994824;28;20445;-72
2023/04/01 09:00:45;;;;;;;2.40;0.63;;;8.40;99.90;;;;;;4991830;28;20461;-73
2023/04/01 09:03:36;;;;;;;0.93;0.80;;;8.30;99.90;;;;;;4986669;28;20426;-73
2023/04/01 09:06:20;;;;;;;0.63;0.63;;;8.30;99.90;;;;;;4993895;28;20438;-73
2023/04/01 09:09:04;;;;;;;3.07;0.50;;;8.40;99.90;;;;;;5006151;28;20785;-73
2023/04/01 09:11:38;;;;;;;0.93;0.67;;;8.50;99.90;;;;;;4994593;28;20442;-73
2023/04/01 09:14:22;;;;;;;2.57;1.00;;;8.60;99.90;;;;;;4994432;28;20796;-73
2023/04/01 09:16:54;;;;;;;1.03;0.70;;;8.90;99.90;;;;;;4992052;28;20439;-69
2023/04/01 09:19:43;;;;;;;1.10;0.70;;;9.20;99.90;;;;;;4993906;28;20451;-72
2023/04/01 09:22:20;;;;;;;0.80;0.60;;;9.40;99.90;;;;;;4991300;28;20542;-73
2023/04/01 09:25:01;;;;;;;3.63;0.83;;;9.50;99.90;;;;;;4987400;28;20509;-73
2023/04/01 09:27:55;;;;;;;1.90;0.60;;;9.60;99.90;;;;;;4989475;28;20438;-72
2023/04/01 09:30:54;;;;;;;0.70;0.50;;;9.80;99.90;;;;;;4984702;28;20536;-72
2023/04/01 09:33:37;;;;;;;1.40;1.00;;;10.10;99.90;;;;;;4990784;28;20774;-71
2023/04/01 09:36:18;;;;;;;2.37;0.73;;;10.10;99.90;;;;;;4992422;28;20835;-70
2023/04/01 09:39:03;;;;;;;1.23;0.67;;;10.00;99.90;;;;;;4993271;28;20545;-72
2023/04/01 09:41:45;;;;;;;1.67;0.60;;;9.60;99.90;;;;;;4994862;28;20497;-72
2023/04/01 09:44:24;;;;;;;1.37;0.67;;;9.40;99.90;;;;;;4995025;28;20454;-72
2023/04/01 09:46:58;;;;;;;2.60;0.80;;;9.30;99.90;;;;;;4993056;28;20455;-72
2023/04/01 09:49:57;;;;;;;3.07;0.73;;;9.30;99.90;;;;;;4993068;28;20531;-72
2023/04/01 09:52:52;;;;;;;0.60;0.50;;;9.30;99.90;;;;;;4962807;28;20529;-72
2023/04/01 09:55:36;;;;;;;1.40;0.90;;;9.30;99.90;;;;;;4993342;28;20450;-73
2023/04/01 09:58:42;;;;;;;1.53;0.80;;;9.30;99.90;;;;;;4993133;28;20966;-73
2023/04/01 10:01:46;;;;;;;1.03;0.93;;;9.30;99.90;;;;;;4970840;28;20529;-72
2023/04/01 10:04:36;;;;;;;0.80;0.63;;;9.20;99.90;;;;;;4990329;28;20822;-74
2023/04/01 10:07:30;;;;;;;0.93;0.90;;;9.20;99.90;;;;;;4983988;28;20800;-73
2023/04/01 10:10:07;;;;;;;1.90;0.57;;;9.20;99.90;;;;;;4989221;28;20524;-74
2023/04/01 10:12:38;;;;;;;0.83;0.60;;;9.20;99.90;;;;;;4992384;28;20438;-73
2023/04/01 10:15:12;;;;;;;1.10;0.87;;;9.30;99.90;;;;;;4990693;28;20427;-71
2023/04/01 10:17:43;;;;;;;1.73;1.00;;;9.40;99.90;;;;;;4992897;28;20434;-74
2023/04/01 10:20:17;;;;;;;0.70;0.60;;;9.50;99.90;;;;;;4988837;28;20459;-74
2023/04/01 10:23:08;;;;;;;0.90;0.70;;;9.70;99.90;;;;;;4990733;28;20489;-73
2023/04/01 10:26:10;;;;;;;1.67;0.90;;;9.80;99.90;;;;;;4989646;28;20438;-73
2023/04/01 10:29:10;;;;;;;0.70;0.60;;;10.20;99.90;;;;;;4947004;28;20480;-74
2023/04/01 10:31:55;;;;;;;0.80;0.60;;;10.50;99.90;;;;;;4986500;28;20423;-74
2023/04/01 10:34:39;;;;;;;0.77;0.50;;;10.80;99.90;;;;;;4991229;28;20907;-73
2023/04/01 10:37:24;;;;;;;0.60;0.60;;;11.30;99.90;;;;;;4987556;28;20450;-74
2023/04/01 10:40:19;;;;;;;1.40;1.37;;;11.70;99.90;;;;;;4984624;28;20505;-73
2023/04/01 10:43:13;;;;;;;0.70;0.70;;;11.90;99.90;;;;;;4989221;28;20461;-73
2023/04/01 10:46:20;;;;;;;0.60;0.60;;;11.80;99.90;;;;;;4993769;28;20892;-73
2023/04/01 10:49:11;;;;;;;1.07;0.70;;;12.00;99.90;;;;;;4984438;28;20943;-73
2023/04/01 10:52:04;;;;;;;0.97;0.90;;;12.40;99.90;;;;;;4992499;28;20426;-73
2023/04/01 10:55:14;;;;;;;0.60;0.60;;;12.30;99.90;;;;;;4993746;28;20450;-74
2023/04/01 10:58:10;;;;;;;0.60;0.50;;;12.20;99.90;;;;;;4986894;28;20426;-74
2023/04/01 11:01:03;;;;;;;0.70;0.70;;;11.60;99.90;;;;;;4983856;28;22168;-74
2023/04/01 11:03:48;;;;;;;0.50;0.50;;;11.20;99.90;;;;;;4985079;28;20434;-74
2023/04/01 11:06:49;;;;;;;0.50;0.50;;;11.40;99.90;;;;;;4984925;28;20793;-74
2023/04/01 11:12:26;;;;;;;0.47;0.47;;;11.20;99.90;;;;;;5000179;28;20575;-67
2023/04/01 11:15:18;;;;;;;0.80;0.60;;;11.10;99.90;;;;;;4997841;28;20517;-67
2023/04/01 11:17:49;;;;;;;1.20;1.10;;;10.90;99.90;;;;;;4995095;28;20439;-68
2023/04/01 11:20:39;;;;;;;0.80;0.70;;;11.00;99.90;;;;;;5001632;28;20880;-67
2023/04/01 11:23:27;;;;;;;0.90;0.60;;;11.30;99.90;;;;;;4997623;28;20474;-67
2023/04/01 11:26:54;;;;;;;0.70;0.60;;;11.60;99.90;;;;;;4993377;28;20446;-67
2023/04/01 11:29:46;;;;;;;0.90;0.63;;;11.60;99.90;;;;;;4957082;28;20456;-68
2023/04/01 11:32:40;;;;;;;0.80;0.80;;;11.40;99.90;;;;;;4983079;28;20533;-68
2023/04/01 11:35:44;;;;;;;0.60;0.60;;;11.30;99.90;;;;;;4988521;28;20434;-67
2023/04/01 11:38:30;;;;;;;0.73;0.70;;;11.50;99.90;;;;;;4986771;28;20462;-65
2023/04/01 11:41:07;;;;;;;0.97;0.80;;;11.60;99.90;;;;;;4982656;28;20520;-67
2023/04/01 11:43:57;;;;;;;1.13;0.90;;;11.60;99.90;;;;;;4984920;28;20525;-68
2023/04/01 11:46:48;;;;;;;1.13;0.97;;;11.60;99.90;;;;;;4983189;28;20442;-68
2023/04/01 11:49:49;;;;;;;1.10;0.90;;;11.80;99.90;;;;;;4978729;28;20431;-68
2023/04/01 11:52:33;;;;;;;2.00;0.80;;;11.90;99.90;;;;;;4982774;28;20440;-67
2023/04/01 11:55:28;;;;;;;0.50;0.50;;;11.90;99.90;;;;;;4984012;28;20431;-67
2023/04/01 11:58:11;;;;;;;0.73;0.70;;;11.60;99.90;;;;;;4980665;28;20947;-67
2023/04/01 12:01:26;;;;;;;0.60;0.60;;;11.30;99.90;;;;;;4982026;28;20833;-68
2023/04/01 12:04:16;;;;;;;0.50;0.50;;;11.20;99.90;;;;;;4978250;28;20978;-67
2023/04/01 12:06:49;;;;;;;1.90;0.70;;;11.20;99.90;;;;;;4981587;28;20493;-67
2023/04/01 12:09:36;;;;;;;0.87;0.50;;;11.30;99.90;;;;;;4980302;28;20434;-68
2023/04/01 12:12:29;;;;;;;0.70;0.60;;;11.40;99.90;;;;;;4984802;28;20474;-67
2023/04/01 12:15:18;;;;;;;1.20;0.87;;;11.40;99.90;;;;;;4992199;28;20570;-68
2023/04/01 12:18:18;;;;;;;0.70;0.60;;;11.50;99.90;;;;;;4983548;28;20436;-67
2023/04/01 12:21:07;;;;;;;0.70;0.60;;;11.40;99.90;;;;;;4999192;28;20516;-67
2023/04/01 12:23:54;;;;;;;0.87;0.60;;;11.20;99.90;;;;;;4995391;28;20947;-68
2023/04/01 12:26:36;;;;;;;1.03;0.60;;;11.10;99.90;;;;;;4995877;28;20528;-68
2023/04/01 12:29:27;;;;;;;1.00;0.60;;;11.00;99.90;;;;;;4991494;28;20434;-68
2023/04/01 12:31:59;;;;;;;0.70;0.50;;;11.00;99.90;;;;;;4985442;28;20529;-68
2023/04/01 12:34:27;;;;;;;0.53;0.50;;;11.20;99.90;;;;;;5002974;28;20441;-66
2023/04/01 12:37:10;;;;;;;0.60;0.60;;;11.40;99.90;;;;;;4992786;28;20447;-68
2023/04/01 12:39:50;;;;;;;0.53;0.53;;;11.80;99.90;;;;;;5005642;28;20459;-68
2023/04/01 12:42:31;;;;;;;0.50;0.50;;;12.20;99.90;;;;;;4985758;28;20443;-68
2023/04/01 12:45:11;;;;;;;0.77;0.70;;;12.60;99.90;;;;;;4996345;28;21046;-68
2023/04/01 12:47:49;;;;;;;0.70;0.60;;;13.40;99.90;;;;;;4995830;28;20430;-68
2023/04/01 12:50:33;;;;;;;1.13;1.00;;;14.40;99.90;;;;;;4995310;28;20434;-68
2023/04/01 12:53:14;;;;;;;0.70;0.60;;;14.70;99.90;;;;;;4995687;28;20508;-68
2023/04/01 12:55:40;;;;;;;0.80;0.80;;;14.50;99.90;;;;;;4995180;28;20868;-68
2023/04/01 12:58:25;;;;;;;0.73;0.73;;;14.20;99.90;;;;;;4995645;28;20442;-68
2023/04/01 13:01:28;;;;;;;0.70;0.70;;;14.20;99.90;;;;;;4984467;28;20207;-68
2023/04/01 13:04:23;;;;;;;0.70;0.70;;;14.40;99.90;;;;;;4987211;28;20418;-68
2023/04/01 13:07:26;;;;;;;0.70;0.57;;;14.30;99.90;;;;;;4995868;28;20403;-68
2023/04/01 13:10:14;;;;;;;0.60;0.60;;;14.10;99.90;;;;;;4994833;28;20453;-67
2023/04/01 13:13:08;;;;;;;1.77;0.97;;;13.70;99.90;;;;;;4991703;28;20467;-68
2023/04/01 13:15:52;;;;;;;2.40;0.60;;;13.10;99.90;;;;;;4999736;28;20977;-68
2023/04/01 13:18:24;;;;;;;0.63;0.63;;;12.80;99.90;;;;;;4983384;28;20450;-67
2023/04/01 13:21:30;;;;;;;0.60;0.50;;;12.60;99.90;;;;;;4984045;28;20556;-68
2023/04/01 13:24:18;;;;;;;0.73;0.73;;;12.40;99.90;;;;;;4984790;28;20797;-68
2023/04/01 13:27:05;;;;;;;0.80;0.80;;;12.40;99.90;;;;;;4985383;28;20445;-67
2023/04/01 13:29:51;;;;;;;1.00;0.60;;;12.50;99.90;;;;;;4982902;28;20454;-66
2023/04/01 13:32:37;;;;;;;0.60;0.60;;;12.60;99.90;;;;;;4975714;28;20461;-68
2023/04/01 13:35:18;;;;;;;0.90;0.70;;;12.60;99.90;;;;;;4985928;28;20526;-68
2023/04/01 13:38:16;;;;;;;0.70;0.70;;;12.60;99.90;;;;;;4983230;28;20939;-67
2023/04/01 13:40:42;;;;;;;0.63;0.63;;;12.70;99.90;;;;;;4983921;28;20475;-67
2023/04/01 13:43:15;;;;;;;0.63;0.60;;;12.40;99.90;;;;;;4996332;28;20440;-68
2023/04/01 13:45:59;;;;;;;0.63;0.63;;;12.30;99.90;;;;;;4985602;28;20190;-67
2023/04/01 13:48:53;;;;;;;0.80;0.60;;;12.40;99.90;;;;;;4983423;28;20527;-68
2023/04/01 13:51:19;;;;;;;0.80;0.60;;;12.40;99.90;;;;;;4984613;28;20463;-67